sensor_id;sensor_type;location;lat;lon;timestamp;temperature;humidity
18948;DHT22;9607;51.600;7.558;2024-01-30T00:00:52;7.10;99.90
18948;DHT22;9607;51.600;7.558;2024-01-30T00:03:19;7.10;99.90
18948;DHT22;9607;51.600;7.558;2024-01-30T00:05:47;7.10;99.90
18948;DHT22;9607;51.600;7.558;2024-01-30T00:08:15;7.00;99.90
18948;DHT22;9607;51.600;7.558;2024-01-30T00:10:41;7.00;99.90
18948;DHT22;9607;51.600;7.558;2024-01-30T00:13:08;7.00;99.90
18948;DHT22;9607;51.600;7.558;2024-01-30T00:15:35;7.00;99.90
18948;DHT22;9607;51.600;7.558;2024-01-30T00:18:02;7.00;99.90
18948;DHT22;9607;51.600;7.558;2024-01-30T00:20:28;6.90;99.90
18948;DHT22;9607;51.600;7.558;2024-01-30T00:22:55;6.90;99.90
18948;DHT22;9607;51.600;7.558;2024-01-30T00:25:23;6.90;99.90
18948;DHT22;9607;51.600;7.558;2024-01-30T00:27:51;6.90;99.90
18948;DHT22;9607;51.600;7.558;2024-01-30T00:30:18;6.90;99.90
18948;DHT22;9607;51.600;7.558;2024-01-30T00:32:45;6.80;99.90
18948;DHT22;9607;51.600;7.558;2024-01-30T00:35:12;6.80;99.90
18948;DHT22;9607;51.600;7.558;2024-01-30T00:37:38;6.80;99.90
18948;DHT22;9607;51.600;7.558;2024-01-30T00:40:06;6.80;99.90
18948;DHT22;9607;51.600;7.558;2024-01-30T00:42:37;6.80;99.90
18948;DHT22;9607;51.600;7.558;2024-01-30T00:45:04;6.80;99.90
18948;DHT22;9607;51.600;7.558;2024-01-30T00:47:32;6.70;99.90
18948;DHT22;9607;51.600;7.558;2024-01-30T00:49:59;6.70;99.90
18948;DHT22;9607;51.600;7.558;2024-01-30T00:52:25;6.60;99.90
18948;DHT22;9607;51.600;7.558;2024-01-30T00:54:52;6.60;99.90
18948;DHT22;9607;51.600;7.558;2024-01-30T00:57:19;6.60;99.90
18948;DHT22;9607;51.600;7.558;2024-01-30T00:59:47;6.60;99.90
18948;DHT22;9607;51.600;7.558;2024-01-30T01:02:14;6.60;99.90
18948;DHT22;9607;51.600;7.558;2024-01-30T01:04:42;6.60;99.90
18948;DHT22;9607;51.600;7.558;2024-01-30T01:07:09;6.50;99.90
18948;DHT22;9607;51.600;7.558;2024-01-30T01:09:36;6.40;99.90
18948;DHT22;9607;51.600;7.558;2024-01-30T01:12:04;6.40;99.90
18948;DHT22;9607;51.600;7.558;2024-01-30T01:14:31;6.40;99.90
18948;DHT22;9607;51.600;7.558;2024-01-30T01:16:59;6.30;99.90
18948;DHT22;9607;51.600;7.558;2024-01-30T01:19:26;6.30;99.90
18948;DHT22;9607;51.600;7.558;2024-01-30T01:21:53;6.30;99.90
18948;DHT22;9607;51.600;7.558;2024-01-30T01:24:19;6.30;99.90
18948;DHT22;9607;51.600;7.558;2024-01-30T01:26:46;6.30;99.90
18948;DHT22;9607;51.600;7.558;2024-01-30T01:29:13;6.30;99.90
18948;DHT22;9607;51.600;7.558;2024-01-30T01:31:41;6.30;99.90
18948;DHT22;9607;51.600;7.558;2024-01-30T01:34:10;6.40;99.90
18948;DHT22;9607;51.600;7.558;2024-01-30T01:36:37;6.40;99.90
18948;DHT22;9607;51.600;7.558;2024-01-30T01:39:04;6.40;99.90
18948;DHT22;9607;51.600;7.558;2024-01-30T01:41:31;6.40;99.90
18948;DHT22;9607;51.600;7.558;2024-01-30T01:43:58;6.40;99.90
18948;DHT22;9607;51.600;7.558;2024-01-30T01:46:27;6.50;99.90
18948;DHT22;9607;51.600;7.558;2024-01-30T01:48:54;6.50;99.90
18948;DHT22;9607;51.600;7.558;2024-01-30T01:51:23;6.50;99.90
18948;DHT22;9607;51.600;7.558;2024-01-30T01:53:51;6.50;99.90
18948;DHT22;9607;51.600;7.558;2024-01-30T01:56:18;6.50;99.90
18948;DHT22;9607;51.600;7.558;2024-01-30T01:58:46;6.50;99.90
18948;DHT22;9607;51.600;7.558;2024-01-30T02:01:14;6.50;99.90
18948;DHT22;9607;51.600;7.558;2024-01-30T02:03:42;6.50;99.90
18948;DHT22;9607;51.600;7.558;2024-01-30T02:06:09;6.50;99.90
18948;DHT22;9607;51.600;7.558;2024-01-30T02:08:38;6.60;99.90
18948;DHT22;9607;51.600;7.558;2024-01-30T02:11:05;6.60;99.90
18948;DHT22;9607;51.600;7.558;2024-01-30T02:13:32;6.60;99.90
18948;DHT22;9607;51.600;7.558;2024-01-30T02:16:00;6.50;99.90
18948;DHT22;9607;51.600;7.558;2024-01-30T02:18:26;6.50;99.90
18948;DHT22;9607;51.600;7.558;2024-01-30T02:20:56;6.50;99.90
18948;DHT22;9607;51.600;7.558;2024-01-30T02:23:24;6.50;99.90
18948;DHT22;9607;51.600;7.558;2024-01-30T02:25:51;6.60;99.90
18948;DHT22;9607;51.600;7.558;2024-01-30T02:28:18;6.50;99.90
18948;DHT22;9607;51.600;7.558;2024-01-30T02:30:46;6.50;99.90
18948;DHT22;9607;51.600;7.558;2024-01-30T02:33:13;6.50;99.90
18948;DHT22;9607;51.600;7.558;2024-01-30T02:35:40;6.40;99.90
18948;DHT22;9607;51.600;7.558;2024-01-30T02:38:06;6.40;99.90
18948;DHT22;9607;51.600;7.558;2024-01-30T02:40:35;6.40;99.90
18948;DHT22;9607;51.600;7.558;2024-01-30T02:43:02;6.40;99.90
18948;DHT22;9607;51.600;7.558;2024-01-30T02:45:29;6.40;99.90
18948;DHT22;9607;51.600;7.558;2024-01-30T02:47:56;6.40;99.90
18948;DHT22;9607;51.600;7.558;2024-01-30T02:50:23;6.30;99.90
18948;DHT22;9607;51.600;7.558;2024-01-30T02:52:49;6.30;99.90
18948;DHT22;9607;51.600;7.558;2024-01-30T02:55:16;6.30;99.90
18948;DHT22;9607;51.600;7.558;2024-01-30T02:57:46;6.20;99.90
18948;DHT22;9607;51.600;7.558;2024-01-30T03:00:13;6.20;99.90
18948;DHT22;9607;51.600;7.558;2024-01-30T03:02:40;6.20;99.90
18948;DHT22;9607;51.600;7.558;2024-01-30T03:05:08;6.20;99.90
18948;DHT22;9607;51.600;7.558;2024-01-30T03:07:35;6.20;99.90
18948;DHT22;9607;51.600;7.558;2024-01-30T03:10:04;6.20;99.90
18948;DHT22;9607;51.600;7.558;2024-01-30T03:12:31;6.20;99.90
18948;DHT22;9607;51.600;7.558;2024-01-30T03:14:59;6.20;99.90
18948;DHT22;9607;51.600;7.558;2024-01-30T03:17:26;6.10;99.90
18948;DHT22;9607;51.600;7.558;2024-01-30T03:19:53;6.10;99.90
18948;DHT22;9607;51.600;7.558;2024-01-30T03:22:19;6.10;99.90
18948;DHT22;9607;51.600;7.558;2024-01-30T03:24:46;6.10;99.90
18948;DHT22;9607;51.600;7.558;2024-01-30T03:27:13;6.10;99.90
18948;DHT22;9607;51.600;7.558;2024-01-30T03:29:40;6.10;99.90
18948;DHT22;9607;51.600;7.558;2024-01-30T03:32:08;6.10;99.90
18948;DHT22;9607;51.600;7.558;2024-01-30T03:34:35;6.10;99.90
18948;DHT22;9607;51.600;7.558;2024-01-30T03:37:02;6.10;99.90
18948;DHT22;9607;51.600;7.558;2024-01-30T03:39:29;6.10;99.90
18948;DHT22;9607;51.600;7.558;2024-01-30T03:41:56;6.10;99.90
18948;DHT22;9607;51.600;7.558;2024-01-30T03:44:23;6.10;99.90
18948;DHT22;9607;51.600;7.558;2024-01-30T03:46:50;6.10;99.90
18948;DHT22;9607;51.600;7.558;2024-01-30T03:49:18;6.20;99.90
18948;DHT22;9607;51.600;7.558;2024-01-30T03:51:45;6.20;99.90
18948;DHT22;9607;51.600;7.558;2024-01-30T03:54:14;6.20;99.90
18948;DHT22;9607;51.600;7.558;2024-01-30T03:56:41;6.20;99.90
18948;DHT22;9607;51.600;7.558;2024-01-30T03:59:07;6.20;99.90
18948;DHT22;9607;51.600;7.558;2024-01-30T04:01:34;6.20;99.90
18948;DHT22;9607;51.600;7.558;2024-01-30T04:04:01;6.40;99.90
18948;DHT22;9607;51.600;7.558;2024-01-30T04:06:29;6.30;99.90
18948;DHT22;9607;51.600;7.558;2024-01-30T04:08:55;6.30;99.90
18948;DHT22;9607;51.600;7.558;2024-01-30T04:11:22;6.30;99.90
18948;DHT22;9607;51.600;7.558;2024-01-30T04:13:48;6.30;99.90
18948;DHT22;9607;51.600;7.558;2024-01-30T04:16:24;6.30;99.90
18948;DHT22;9607;51.600;7.558;2024-01-30T04:18:51;6.30;99.90
18948;DHT22;9607;51.600;7.558;2024-01-30T04:21:18;6.30;99.90
18948;DHT22;9607;51.600;7.558;2024-01-30T04:23:46;6.40;99.90
18948;DHT22;9607;51.600;7.558;2024-01-30T04:26:13;6.40;99.90
18948;DHT22;9607;51.600;7.558;2024-01-30T04:28:41;6.30;99.90
18948;DHT22;9607;51.600;7.558;2024-01-30T04:31:08;6.40;99.90
18948;DHT22;9607;51.600;7.558;2024-01-30T04:33:35;6.40;99.90
18948;DHT22;9607;51.600;7.558;2024-01-30T04:36:02;6.40;99.90
18948;DHT22;9607;51.600;7.558;2024-01-30T04:38:29;6.40;99.90
18948;DHT22;9607;51.600;7.558;2024-01-30T04:40:57;6.40;99.90
18948;DHT22;9607;51.600;7.558;2024-01-30T04:43:24;6.40;99.90
18948;DHT22;9607;51.600;7.558;2024-01-30T04:45:51;6.40;99.90
18948;DHT22;9607;51.600;7.558;2024-01-30T04:48:18;6.30;99.90
18948;DHT22;9607;51.600;7.558;2024-01-30T04:50:45;6.30;99.90
18948;DHT22;9607;51.600;7.558;2024-01-30T04:53:12;6.30;99.90
18948;DHT22;9607;51.600;7.558;2024-01-30T04:55:38;6.30;99.90
18948;DHT22;9607;51.600;7.558;2024-01-30T04:58:06;6.20;99.90
18948;DHT22;9607;51.600;7.558;2024-01-30T05:00:33;6.20;99.90
18948;DHT22;9607;51.600;7.558;2024-01-30T05:03:00;6.20;99.90
18948;DHT22;9607;51.600;7.558;2024-01-30T05:05:27;6.20;99.90
18948;DHT22;9607;51.600;7.558;2024-01-30T05:07:54;6.20;99.90
18948;DHT22;9607;51.600;7.558;2024-01-30T05:10:21;6.20;99.90
18948;DHT22;9607;51.600;7.558;2024-01-30T05:12:47;6.20;99.90
18948;DHT22;9607;51.600;7.558;2024-01-30T05:15:19;6.20;99.90
18948;DHT22;9607;51.600;7.558;2024-01-30T05:17:45;6.20;99.90
18948;DHT22;9607;51.600;7.558;2024-01-30T05:20:13;6.20;99.90
18948;DHT22;9607;51.600;7.558;2024-01-30T05:22:40;6.20;99.90
18948;DHT22;9607;51.600;7.558;2024-01-30T05:25:10;6.20;99.90
18948;DHT22;9607;51.600;7.558;2024-01-30T05:27:37;6.30;99.90
18948;DHT22;9607;51.600;7.558;2024-01-30T05:30:05;6.30;99.90
18948;DHT22;9607;51.600;7.558;2024-01-30T05:32:33;6.30;99.90
18948;DHT22;9607;51.600;7.558;2024-01-30T05:35:00;6.30;99.90
18948;DHT22;9607;51.600;7.558;2024-01-30T05:37:26;6.30;99.90
18948;DHT22;9607;51.600;7.558;2024-01-30T05:39:53;6.30;99.90
18948;DHT22;9607;51.600;7.558;2024-01-30T05:42:20;6.30;99.90
18948;DHT22;9607;51.600;7.558;2024-01-30T05:44:47;6.30;99.90
18948;DHT22;9607;51.600;7.558;2024-01-30T05:47:14;6.30;99.90
18948;DHT22;9607;51.600;7.558;2024-01-30T05:49:43;6.30;99.90
18948;DHT22;9607;51.600;7.558;2024-01-30T05:52:10;6.30;99.90
18948;DHT22;9607;51.600;7.558;2024-01-30T05:54:36;6.30;99.90
18948;DHT22;9607;51.600;7.558;2024-01-30T05:57:03;6.30;99.90
18948;DHT22;9607;51.600;7.558;2024-01-30T05:59:30;6.30;99.90
18948;DHT22;9607;51.600;7.558;2024-01-30T06:01:57;6.30;99.90
18948;DHT22;9607;51.600;7.558;2024-01-30T06:04:24;6.30;99.90
18948;DHT22;9607;51.600;7.558;2024-01-30T06:06:52;6.30;99.90
18948;DHT22;9607;51.600;7.558;2024-01-30T06:09:18;6.30;99.90
18948;DHT22;9607;51.600;7.558;2024-01-30T06:11:45;6.30;99.90
18948;DHT22;9607;51.600;7.558;2024-01-30T06:14:12;6.30;99.90
18948;DHT22;9607;51.600;7.558;2024-01-30T06:16:40;6.20;99.90
18948;DHT22;9607;51.600;7.558;2024-01-30T06:19:07;6.20;99.90
18948;DHT22;9607;51.600;7.558;2024-01-30T06:21:33;6.20;99.90
18948;DHT22;9607;51.600;7.558;2024-01-30T06:24:03;6.20;99.90
18948;DHT22;9607;51.600;7.558;2024-01-30T06:26:30;6.20;99.90
18948;DHT22;9607;51.600;7.558;2024-01-30T06:28:57;6.20;99.90
18948;DHT22;9607;51.600;7.558;2024-01-30T06:31:23;6.30;99.90
18948;DHT22;9607;51.600;7.558;2024-01-30T06:33:50;6.30;99.90
18948;DHT22;9607;51.600;7.558;2024-01-30T06:36:17;6.30;99.90
18948;DHT22;9607;51.600;7.558;2024-01-30T06:38:43;6.30;99.90
18948;DHT22;9607;51.600;7.558;2024-01-30T06:41:12;6.40;99.90
18948;DHT22;9607;51.600;7.558;2024-01-30T06:43:38;6.40;99.90
18948;DHT22;9607;51.600;7.558;2024-01-30T06:46:05;6.40;99.90
18948;DHT22;9607;51.600;7.558;2024-01-30T06:48:32;6.50;99.90
18948;DHT22;9607;51.600;7.558;2024-01-30T06:50:59;6.50;99.90
18948;DHT22;9607;51.600;7.558;2024-01-30T06:53:25;6.60;99.90
18948;DHT22;9607;51.600;7.558;2024-01-30T06:55:52;6.60;99.90
18948;DHT22;9607;51.600;7.558;2024-01-30T06:58:20;6.60;99.90
18948;DHT22;9607;51.600;7.558;2024-01-30T07:00:47;6.70;99.90
18948;DHT22;9607;51.600;7.558;2024-01-30T07:03:14;6.70;99.90
18948;DHT22;9607;51.600;7.558;2024-01-30T07:05:41;6.70;99.90
18948;DHT22;9607;51.600;7.558;2024-01-30T07:08:08;6.80;99.90
18948;DHT22;9607;51.600;7.558;2024-01-30T07:10:34;6.80;99.90
18948;DHT22;9607;51.600;7.558;2024-01-30T07:13:01;6.90;99.90
18948;DHT22;9607;51.600;7.558;2024-01-30T07:15:31;6.90;99.90
18948;DHT22;9607;51.600;7.558;2024-01-30T07:17:57;6.90;99.90
18948;DHT22;9607;51.600;7.558;2024-01-30T07:20:24;7.00;99.90
18948;DHT22;9607;51.600;7.558;2024-01-30T07:22:51;7.00;99.90
18948;DHT22;9607;51.600;7.558;2024-01-30T07:25:18;7.00;99.90
18948;DHT22;9607;51.600;7.558;2024-01-30T07:27:45;7.10;99.90
18948;DHT22;9607;51.600;7.558;2024-01-30T07:30:12;7.10;99.90
18948;DHT22;9607;51.600;7.558;2024-01-30T07:32:40;7.20;99.90
18948;DHT22;9607;51.600;7.558;2024-01-30T07:35:07;7.20;99.90
18948;DHT22;9607;51.600;7.558;2024-01-30T07:37:34;7.30;99.90
18948;DHT22;9607;51.600;7.558;2024-01-30T07:40:01;7.30;99.90
18948;DHT22;9607;51.600;7.558;2024-01-30T07:42:28;7.50;99.90
18948;DHT22;9607;51.600;7.558;2024-01-30T07:44:55;7.50;99.90
18948;DHT22;9607;51.600;7.558;2024-01-30T07:47:22;7.50;99.90
18948;DHT22;9607;51.600;7.558;2024-01-30T07:49:50;7.60;99.90
18948;DHT22;9607;51.600;7.558;2024-01-30T07:52:17;7.70;99.90
18948;DHT22;9607;51.600;7.558;2024-01-30T07:54:44;7.80;99.90
18948;DHT22;9607;51.600;7.558;2024-01-30T07:57:11;7.90;99.90
18948;DHT22;9607;51.600;7.558;2024-01-30T07:59:37;8.00;99.90
18948;DHT22;9607;51.600;7.558;2024-01-30T08:02:04;8.10;99.90
18948;DHT22;9607;51.600;7.558;2024-01-30T08:04:31;8.20;99.90
18948;DHT22;9607;51.600;7.558;2024-01-30T08:06:59;8.30;99.90
18948;DHT22;9607;51.600;7.558;2024-01-30T08:09:26;8.40;99.90
18948;DHT22;9607;51.600;7.558;2024-01-30T08:11:52;8.50;99.90
18948;DHT22;9607;51.600;7.558;2024-01-30T08:14:19;8.60;99.90
18948;DHT22;9607;51.600;7.558;2024-01-30T08:16:46;8.70;99.90
18948;DHT22;9607;51.600;7.558;2024-01-30T08:19:13;8.80;99.90
18948;DHT22;9607;51.600;7.558;2024-01-30T08:21:40;8.90;99.90
18948;DHT22;9607;51.600;7.558;2024-01-30T08:24:09;9.00;99.90
18948;DHT22;9607;51.600;7.558;2024-01-30T08:26:36;9.10;99.90
18948;DHT22;9607;51.600;7.558;2024-01-30T08:29:02;9.20;99.90
18948;DHT22;9607;51.600;7.558;2024-01-30T08:31:29;9.30;99.90
18948;DHT22;9607;51.600;7.558;2024-01-30T08:33:56;9.30;99.90
18948;DHT22;9607;51.600;7.558;2024-01-30T08:36:23;9.40;99.90
18948;DHT22;9607;51.600;7.558;2024-01-30T08:38:50;9.50;99.90
18948;DHT22;9607;51.600;7.558;2024-01-30T08:41:18;9.60;99.90
18948;DHT22;9607;51.600;7.558;2024-01-30T08:43:45;9.70;99.90
18948;DHT22;9607;51.600;7.558;2024-01-30T08:46:12;9.80;99.90
18948;DHT22;9607;51.600;7.558;2024-01-30T08:48:38;9.80;99.90
18948;DHT22;9607;51.600;7.558;2024-01-30T08:51:05;9.90;99.90
18948;DHT22;9607;51.600;7.558;2024-01-30T08:53:34;10.00;99.90
18948;DHT22;9607;51.600;7.558;2024-01-30T08:56:02;10.00;99.90
18948;DHT22;9607;51.600;7.558;2024-01-30T08:58:30;10.10;99.90
18948;DHT22;9607;51.600;7.558;2024-01-30T09:00:57;10.10;99.90
18948;DHT22;9607;51.600;7.558;2024-01-30T09:03:24;10.20;99.90
18948;DHT22;9607;51.600;7.558;2024-01-30T09:05:51;10.30;99.90
18948;DHT22;9607;51.600;7.558;2024-01-30T09:08:18;10.40;99.90
18948;DHT22;9607;51.600;7.558;2024-01-30T09:10:45;10.50;99.90
18948;DHT22;9607;51.600;7.558;2024-01-30T09:13:11;10.60;99.90
18948;DHT22;9607;51.600;7.558;2024-01-30T09:15:41;10.70;99.90
18948;DHT22;9607;51.600;7.558;2024-01-30T09:18:09;10.80;99.90
18948;DHT22;9607;51.600;7.558;2024-01-30T09:20:35;10.80;99.90
18948;DHT22;9607;51.600;7.558;2024-01-30T09:23:02;10.90;99.90
18948;DHT22;9607;51.600;7.558;2024-01-30T09:25:29;11.00;99.90
18948;DHT22;9607;51.600;7.558;2024-01-30T09:27:56;11.00;99.90
18948;DHT22;9607;51.600;7.558;2024-01-30T09:30:22;11.20;99.90
18948;DHT22;9607;51.600;7.558;2024-01-30T09:32:51;11.30;99.90
18948;DHT22;9607;51.600;7.558;2024-01-30T09:35:17;11.40;99.90
18948;DHT22;9607;51.600;7.558;2024-01-30T09:37:44;11.50;99.90
18948;DHT22;9607;51.600;7.558;2024-01-30T09:40:11;11.60;99.90
18948;DHT22;9607;51.600;7.558;2024-01-30T09:42:38;11.70;99.90
18948;DHT22;9607;51.600;7.558;2024-01-30T09:45:06;11.80;99.90
18948;DHT22;9607;51.600;7.558;2024-01-30T09:47:36;11.90;99.90
18948;DHT22;9607;51.600;7.558;2024-01-30T09:50:08;12.00;99.90
18948;DHT22;9607;51.600;7.558;2024-01-30T09:52:35;12.10;99.90
18948;DHT22;9607;51.600;7.558;2024-01-30T09:55:02;12.10;99.90
18948;DHT22;9607;51.600;7.558;2024-01-30T09:57:29;12.20;99.90
18948;DHT22;9607;51.600;7.558;2024-01-30T09:59:56;12.20;99.90
18948;DHT22;9607;51.600;7.558;2024-01-30T10:02:24;12.20;99.90
18948;DHT22;9607;51.600;7.558;2024-01-30T10:04:51;12.20;99.90
18948;DHT22;9607;51.600;7.558;2024-01-30T10:07:20;12.20;99.90
18948;DHT22;9607;51.600;7.558;2024-01-30T10:09:47;12.30;99.90
18948;DHT22;9607;51.600;7.558;2024-01-30T10:12:15;12.30;99.90
18948;DHT22;9607;51.600;7.558;2024-01-30T10:14:42;12.30;99.90
18948;DHT22;9607;51.600;7.558;2024-01-30T10:17:10;12.40;99.90
18948;DHT22;9607;51.600;7.558;2024-01-30T10:19:37;12.40;99.90
18948;DHT22;9607;51.600;7.558;2024-01-30T10:22:04;12.40;99.90
18948;DHT22;9607;51.600;7.558;2024-01-30T10:24:34;12.50;99.90
18948;DHT22;9607;51.600;7.558;2024-01-30T10:27:00;12.60;99.90
18948;DHT22;9607;51.600;7.558;2024-01-30T10:29:28;12.70;99.90
18948;DHT22;9607;51.600;7.558;2024-01-30T10:31:59;12.70;99.90
18948;DHT22;9607;51.600;7.558;2024-01-30T10:34:26;12.80;99.90
18948;DHT22;9607;51.600;7.558;2024-01-30T10:36:59;12.90;99.90
18948;DHT22;9607;51.600;7.558;2024-01-30T10:39:29;13.00;99.90
18948;DHT22;9607;51.600;7.558;2024-01-30T10:42:00;13.10;99.90
18948;DHT22;9607;51.600;7.558;2024-01-30T10:44:36;13.30;99.90
18948;DHT22;9607;51.600;7.558;2024-01-30T10:47:06;13.30;99.90
18948;DHT22;9607;51.600;7.558;2024-01-30T10:49:37;13.50;99.90
18948;DHT22;9607;51.600;7.558;2024-01-30T10:52:05;13.70;99.90
18948;DHT22;9607;51.600;7.558;2024-01-30T10:54:33;13.80;99.90
18948;DHT22;9607;51.600;7.558;2024-01-30T10:57:03;13.90;99.90
18948;DHT22;9607;51.600;7.558;2024-01-30T10:59:31;13.90;99.90
18948;DHT22;9607;51.600;7.558;2024-01-30T11:01:59;13.90;99.90
18948;DHT22;9607;51.600;7.558;2024-01-30T11:04:27;13.80;99.90
18948;DHT22;9607;51.600;7.558;2024-01-30T11:06:54;13.80;99.90
18948;DHT22;9607;51.600;7.558;2024-01-30T11:09:21;13.80;99.90
18948;DHT22;9607;51.600;7.558;2024-01-30T11:11:51;13.90;99.90
18948;DHT22;9607;51.600;7.558;2024-01-30T11:14:24;13.90;99.90
18948;DHT22;9607;51.600;7.558;2024-01-30T11:16:51;14.00;99.90
18948;DHT22;9607;51.600;7.558;2024-01-30T11:19:23;14.10;99.90
18948;DHT22;9607;51.600;7.558;2024-01-30T11:21:51;14.10;99.90
18948;DHT22;9607;51.600;7.558;2024-01-30T11:24:19;14.10;99.90
18948;DHT22;9607;51.600;7.558;2024-01-30T11:26:48;14.00;99.90
18948;DHT22;9607;51.600;7.558;2024-01-30T11:29:16;14.10;99.90
18948;DHT22;9607;51.600;7.558;2024-01-30T11:31:53;14.10;99.90
18948;DHT22;9607;51.600;7.558;2024-01-30T11:34:20;14.20;99.90
18948;DHT22;9607;51.600;7.558;2024-01-30T11:36:52;14.30;99.90
18948;DHT22;9607;51.600;7.558;2024-01-30T11:39:21;14.30;99.90
18948;DHT22;9607;51.600;7.558;2024-01-30T11:41:50;14.60;99.90
18948;DHT22;9607;51.600;7.558;2024-01-30T11:44:18;14.80;99.90
18948;DHT22;9607;51.600;7.558;2024-01-30T11:46:46;14.90;99.90
18948;DHT22;9607;51.600;7.558;2024-01-30T11:49:15;14.90;99.90
18948;DHT22;9607;51.600;7.558;2024-01-30T11:51:42;14.90;99.90
18948;DHT22;9607;51.600;7.558;2024-01-30T11:54:09;14.90;99.90
18948;DHT22;9607;51.600;7.558;2024-01-30T11:56:37;14.80;99.90
18948;DHT22;9607;51.600;7.558;2024-01-30T11:59:04;14.70;99.90
18948;DHT22;9607;51.600;7.558;2024-01-30T12:01:31;14.70;99.90
18948;DHT22;9607;51.600;7.558;2024-01-30T12:03:58;14.60;99.90
18948;DHT22;9607;51.600;7.558;2024-01-30T12:06:26;14.60;99.90
18948;DHT22;9607;51.600;7.558;2024-01-30T12:08:57;14.50;99.90
18948;DHT22;9607;51.600;7.558;2024-01-30T12:11:25;14.50;99.90
18948;DHT22;9607;51.600;7.558;2024-01-30T12:13:52;14.50;99.90
18948;DHT22;9607;51.600;7.558;2024-01-30T12:16:20;14.50;99.90
18948;DHT22;9607;51.600;7.558;2024-01-30T12:18:47;14.40;99.90
18948;DHT22;9607;51.600;7.558;2024-01-30T12:21:16;14.40;99.90
18948;DHT22;9607;51.600;7.558;2024-01-30T12:23:45;14.30;99.90
18948;DHT22;9607;51.600;7.558;2024-01-30T12:26:12;14.30;99.90
18948;DHT22;9607;51.600;7.558;2024-01-30T12:28:48;14.20;99.90
18948;DHT22;9607;51.600;7.558;2024-01-30T12:31:15;14.20;99.90
18948;DHT22;9607;51.600;7.558;2024-01-30T12:33:42;14.10;99.90
18948;DHT22;9607;51.600;7.558;2024-01-30T12:36:09;14.10;99.90
18948;DHT22;9607;51.600;7.558;2024-01-30T12:38:36;14.10;99.90
18948;DHT22;9607;51.600;7.558;2024-01-30T12:41:07;14.00;99.90
18948;DHT22;9607;51.600;7.558;2024-01-30T12:43:34;14.00;99.90
18948;DHT22;9607;51.600;7.558;2024-01-30T12:46:00;14.00;99.90
18948;DHT22;9607;51.600;7.558;2024-01-30T12:48:28;14.00;99.90
18948;DHT22;9607;51.600;7.558;2024-01-30T12:50:56;13.90;99.90
18948;DHT22;9607;51.600;7.558;2024-01-30T12:53:22;13.80;99.90
18948;DHT22;9607;51.600;7.558;2024-01-30T12:55:49;13.70;99.90
18948;DHT22;9607;51.600;7.558;2024-01-30T12:58:17;13.70;99.90
18948;DHT22;9607;51.600;7.558;2024-01-30T13:00:44;13.70;99.90
18948;DHT22;9607;51.600;7.558;2024-01-30T13:03:11;13.80;99.90
18948;DHT22;9607;51.600;7.558;2024-01-30T13:05:38;13.80;99.90
18948;DHT22;9607;51.600;7.558;2024-01-30T13:08:05;13.80;99.90
18948;DHT22;9607;51.600;7.558;2024-01-30T13:10:32;13.80;99.90
18948;DHT22;9607;51.600;7.558;2024-01-30T13:12:59;13.80;99.90
18948;DHT22;9607;51.600;7.558;2024-01-30T13:15:27;13.70;99.90
18948;DHT22;9607;51.600;7.558;2024-01-30T13:17:54;13.70;99.90
18948;DHT22;9607;51.600;7.558;2024-01-30T13:20:20;13.70;99.90
18948;DHT22;9607;51.600;7.558;2024-01-30T13:22:47;13.70;99.90
18948;DHT22;9607;51.600;7.558;2024-01-30T13:25:15;13.70;99.90
18948;DHT22;9607;51.600;7.558;2024-01-30T13:27:42;13.70;99.90
18948;DHT22;9607;51.600;7.558;2024-01-30T13:30:09;13.70;99.90
18948;DHT22;9607;51.600;7.558;2024-01-30T13:32:37;13.70;99.90
18948;DHT22;9607;51.600;7.558;2024-01-30T13:35:06;13.60;99.90
18948;DHT22;9607;51.600;7.558;2024-01-30T13:37:34;13.60;99.90
18948;DHT22;9607;51.600;7.558;2024-01-30T13:40:01;13.60;99.90
18948;DHT22;9607;51.600;7.558;2024-01-30T13:42:28;13.60;99.90
18948;DHT22;9607;51.600;7.558;2024-01-30T13:44:54;13.50;99.90
18948;DHT22;9607;51.600;7.558;2024-01-30T13:47:21;13.50;99.90
18948;DHT22;9607;51.600;7.558;2024-01-30T13:49:50;13.40;99.90
18948;DHT22;9607;51.600;7.558;2024-01-30T13:52:18;13.40;99.90
18948;DHT22;9607;51.600;7.558;2024-01-30T13:54:45;13.30;99.90
18948;DHT22;9607;51.600;7.558;2024-01-30T13:57:12;13.30;99.90
18948;DHT22;9607;51.600;7.558;2024-01-30T13:59:38;13.30;99.90
18948;DHT22;9607;51.600;7.558;2024-01-30T14:02:05;13.20;99.90
18948;DHT22;9607;51.600;7.558;2024-01-30T14:04:34;13.20;99.90
18948;DHT22;9607;51.600;7.558;2024-01-30T14:07:04;13.20;99.90
18948;DHT22;9607;51.600;7.558;2024-01-30T14:09:32;13.20;99.90
18948;DHT22;9607;51.600;7.558;2024-01-30T14:11:59;13.20;99.90
18948;DHT22;9607;51.600;7.558;2024-01-30T14:14:26;13.20;99.90
18948;DHT22;9607;51.600;7.558;2024-01-30T14:16:53;13.20;99.90
18948;DHT22;9607;51.600;7.558;2024-01-30T14:19:20;13.20;99.90
18948;DHT22;9607;51.600;7.558;2024-01-30T14:21:47;13.10;99.90
18948;DHT22;9607;51.600;7.558;2024-01-30T14:24:15;13.10;99.90
18948;DHT22;9607;51.600;7.558;2024-01-30T14:26:42;13.00;99.90
18948;DHT22;9607;51.600;7.558;2024-01-30T14:29:09;13.00;99.90
18948;DHT22;9607;51.600;7.558;2024-01-30T14:31:36;12.90;99.90
18948;DHT22;9607;51.600;7.558;2024-01-30T14:34:03;12.90;99.90
18948;DHT22;9607;51.600;7.558;2024-01-30T14:36:30;12.80;99.90
18948;DHT22;9607;51.600;7.558;2024-01-30T14:38:57;12.80;99.90
18948;DHT22;9607;51.600;7.558;2024-01-30T14:41:25;12.70;99.90
18948;DHT22;9607;51.600;7.558;2024-01-30T14:43:52;12.70;99.90
18948;DHT22;9607;51.600;7.558;2024-01-30T14:46:18;12.80;99.90
18948;DHT22;9607;51.600;7.558;2024-01-30T14:48:45;12.90;99.90
18948;DHT22;9607;51.600;7.558;2024-01-30T14:51:12;13.00;99.90
18948;DHT22;9607;51.600;7.558;2024-01-30T14:53:39;13.00;99.90
18948;DHT22;9607;51.600;7.558;2024-01-30T14:56:06;13.20;99.90
18948;DHT22;9607;51.600;7.558;2024-01-30T14:58:35;13.20;99.90
18948;DHT22;9607;51.600;7.558;2024-01-30T15:01:02;13.30;99.90
18948;DHT22;9607;51.600;7.558;2024-01-30T15:03:28;13.20;99.90
18948;DHT22;9607;51.600;7.558;2024-01-30T15:05:55;13.20;99.90
18948;DHT22;9607;51.600;7.558;2024-01-30T15:08:22;13.20;99.90
18948;DHT22;9607;51.600;7.558;2024-01-30T15:10:49;13.20;99.90
18948;DHT22;9607;51.600;7.558;2024-01-30T15:13:17;13.10;99.90
18948;DHT22;9607;51.600;7.558;2024-01-30T15:15:45;13.10;99.90
18948;DHT22;9607;51.600;7.558;2024-01-30T15:18:12;13.00;99.90
18948;DHT22;9607;51.600;7.558;2024-01-30T15:20:39;13.00;99.90
18948;DHT22;9607;51.600;7.558;2024-01-30T15:23:05;13.00;99.90
18948;DHT22;9607;51.600;7.558;2024-01-30T15:25:32;12.90;99.90
18948;DHT22;9607;51.600;7.558;2024-01-30T15:27:59;12.90;99.90
18948;DHT22;9607;51.600;7.558;2024-01-30T15:30:26;12.90;99.90
18948;DHT22;9607;51.600;7.558;2024-01-30T15:32:54;12.90;99.90
18948;DHT22;9607;51.600;7.558;2024-01-30T15:35:21;12.80;99.90
18948;DHT22;9607;51.600;7.558;2024-01-30T15:37:48;12.70;99.90
18948;DHT22;9607;51.600;7.558;2024-01-30T15:40:14;12.50;99.90
18948;DHT22;9607;51.600;7.558;2024-01-30T15:42:41;12.40;99.90
18948;DHT22;9607;51.600;7.558;2024-01-30T15:45:08;12.30;99.90
18948;DHT22;9607;51.600;7.558;2024-01-30T15:47:35;12.30;99.90
18948;DHT22;9607;51.600;7.558;2024-01-30T15:50:04;12.20;99.90
18948;DHT22;9607;51.600;7.558;2024-01-30T15:52:31;12.20;99.90
18948;DHT22;9607;51.600;7.558;2024-01-30T15:54:58;12.20;99.90